Strona główna
METAR-TAF:

METAR-TAF

Lotnisko :

Port lotniczy Sztokholm-Arlanda

Sztokholm-Arlanda, Szwecja

Szerokość geograficzna: 59-39N, Długość geograficzna: 017-57E, wysokość: 38 m

Aktualna obserwacja pogody

Raport powstał 28 minut temu, godzina 03:20 UTC
Wiatr 8 kt od północno-północny zachód
Temperatura 11°C
Wilgotność 76%
Ciśnienie 1013 hPa
Widzialność 10 km lub więcej
Brak chmur poniżej 1500 m i brak chmur cumulonimbus

METAR: ESSA 250320Z 33008KT CAVOK 11/07 Q1013 NOSIG

czas: 05:48 (03:48 UTC)

Prognoza

Raport powstał 4 godziny i 18 minut temu, godzina 23:30 UTC
Prognoza ważna od 25 godzina 00 UTC do 25 godzina 24 UTC
Wiatr 5 kt od zachodnio-północny zachód
Widzialność 10 km lub więcej
Brak chmur poniżej 1500 m i brak chmur cumulonimbus
Stopniowe zmiany
od 25 godzina 07 UTC do 25 godzina 09 UTC
Wiatr 12 kt od północ

TAF: ESSA 242330Z 2500/2524 30005KT CAVOK BECMG 2507/2509 36012KT

Obserwacja i prognoza pogody dla ponad 4000 lotnisk (raport METAR i TAF).

Dostępne stacje oznaczono żółtymi i czerwonymi punktami na mapie.

Najedź kursorem aby zobaczyć nazwę stacji.

Kliknij aby zobaczyć obserwacje i prognozy pogody.

Aby zmienić mapę: kliknij na zielony przycisk z czarnym krzyżykiem, aby powiększyć; na zielony przycisk z myślnikiem, aby pomniejszyć; na zielone strzałki, aby przejść do map sąsiednich.


METAR-TAF: